Time;durP1;ratioP1;P1;durP2;ratioP2;P2;SDS_P1;SDS_P2;PMS_P1;PMS_P2;Temp;Humidity;BMP_temperature;BMP_pressure;BME280_temperature;BME280_humidity;BME280_pressure;Samples;Min_cycle;Max_cycle;Signal;HPM_P1;HPM_P2
2020/12/29 00:01:16;;;;;;;2.50;1.67;;;7.60;70.80;;;;;;4935009;28;20032;-76
2020/12/29 00:03:42;;;;;;;2.17;1.77;;;7.60;70.80;;;;;;4931306;28;20064;-76
2020/12/29 00:06:07;;;;;;;2.72;1.73;;;7.50;71.20;;;;;;4930768;28;20038;-76
2020/12/29 00:08:32;;;;;;;2.72;2.03;;;7.70;70.90;;;;;;4930164;28;20047;-74
2020/12/29 00:10:58;;;;;;;2.58;2.00;;;7.50;70.80;;;;;;4933461;28;20126;-75
2020/12/29 00:13:23;;;;;;;3.67;2.60;;;7.50;70.90;;;;;;4931500;28;20371;-76
2020/12/29 00:15:49;;;;;;;2.60;1.92;;;7.40;70.80;;;;;;4932441;28;20031;-76
2020/12/29 00:18:14;;;;;;;3.30;2.60;;;7.50;70.90;;;;;;4933565;28;20031;-76
2020/12/29 00:20:40;;;;;;;3.00;2.03;;;7.40;70.90;;;;;;4933507;28;20729;-76
2020/12/29 00:23:05;;;;;;;3.10;2.22;;;7.50;71.00;;;;;;4932882;28;20039;-76
2020/12/29 00:25:31;;;;;;;2.90;2.38;;;7.50;71.00;;;;;;4931292;28;20036;-75
2020/12/29 00:27:56;;;;;;;2.95;2.22;;;7.40;71.00;;;;;;4933437;28;20035;-75
2020/12/29 00:30:22;;;;;;;2.55;1.80;;;7.40;71.00;;;;;;4936388;28;20449;-75
2020/12/29 00:32:47;;;;;;;2.65;2.17;;;7.40;71.10;;;;;;4932207;28;20505;-76
2020/12/29 00:35:13;;;;;;;3.03;2.55;;;7.40;71.10;;;;;;4929292;28;20041;-76
2020/12/29 00:37:38;;;;;;;3.17;2.80;;;7.50;71.20;;;;;;4927388;28;20028;-76
2020/12/29 00:40:04;;;;;;;3.33;2.25;;;7.50;71.20;;;;;;4929380;28;20043;-76
2020/12/29 00:42:34;;;;;;;2.88;2.40;;;7.50;71.20;;;;;;4928279;28;20028;-74
2020/12/29 00:45:00;;;;;;;2.67;1.90;;;7.50;71.20;;;;;;4954341;28;20674;-76
2020/12/29 00:47:25;;;;;;;3.30;2.70;;;7.50;71.10;;;;;;4951765;28;20073;-76
2020/12/29 00:49:51;;;;;;;2.80;2.20;;;7.50;71.10;;;;;;4955998;28;20453;-76
2020/12/29 00:52:16;;;;;;;2.72;2.38;;;7.50;71.10;;;;;;4951588;28;20070;-76
2020/12/29 00:54:42;;;;;;;2.72;2.25;;;7.50;71.00;;;;;;4952865;28;20065;-77
2020/12/29 00:57:07;;;;;;;2.90;2.30;;;7.50;71.00;;;;;;4956914;28;20039;-76
2020/12/29 00:59:33;;;;;;;2.65;2.08;;;7.50;70.90;;;;;;4944021;28;20054;-76
2020/12/29 01:01:58;;;;;;;2.25;1.88;;;7.50;70.90;;;;;;4936227;28;20038;-76
2020/12/29 01:04:24;;;;;;;3.00;2.40;;;7.40;70.90;;;;;;4940644;28;20501;-75
2020/12/29 01:06:51;;;;;;;3.05;2.50;;;7.50;71.00;;;;;;4942263;28;20069;-76
2020/12/29 01:09:17;;;;;;;2.95;2.22;;;7.40;71.00;;;;;;4937913;28;20082;-76
2020/12/29 01:11:42;;;;;;;2.88;1.98;;;7.50;71.00;;;;;;4943157;28;20035;-76
2020/12/29 01:14:08;;;;;;;3.25;2.38;;;7.40;71.00;;;;;;4940999;28;20082;-76
2020/12/29 01:16:34;;;;;;;2.65;1.90;;;7.40;71.00;;;;;;4944254;28;20031;-76
2020/12/29 01:18:59;;;;;;;3.03;1.90;;;7.40;71.00;;;;;;4942999;28;20030;-76
2020/12/29 01:21:25;;;;;;;3.10;2.25;;;7.40;71.10;;;;;;4942509;28;20035;-75
2020/12/29 01:23:50;;;;;;;4.20;2.40;;;7.50;71.20;;;;;;4945460;28;20497;-77
2020/12/29 01:26:23;;;;;;;2.95;2.30;;;7.40;71.20;;;;;;4944094;28;20069;-78
2020/12/29 01:28:50;;;;;;;2.10;1.90;;;7.40;71.30;;;;;;4944118;28;20051;-77
2020/12/29 01:31:22;;;;;;;2.88;2.00;;;7.40;71.20;;;;;;4936732;28;20369;-77
2020/12/29 01:33:48;;;;;;;4.32;2.85;;;7.40;71.30;;;;;;4945370;28;20039;-77
2020/12/29 01:36:13;;;;;;;3.10;2.38;;;7.40;71.30;;;;;;4939198;28;20178;-77
2020/12/29 01:38:40;;;;;;;2.08;1.88;;;7.40;71.20;;;;;;4945362;28;20518;-77
2020/12/29 01:41:06;;;;;;;2.88;2.17;;;7.40;71.10;;;;;;4942982;28;20042;-77
2020/12/29 01:43:31;;;;;;;3.08;2.70;;;7.40;71.10;;;;;;4945249;28;20555;-77
2020/12/29 01:45:57;;;;;;;2.72;2.10;;;7.40;71.10;;;;;;4941679;28;20147;-75
2020/12/29 01:48:26;;;;;;;2.45;2.08;;;7.50;71.10;;;;;;4937791;28;20035;-75
2020/12/29 01:50:52;;;;;;;3.25;2.10;;;7.40;71.00;;;;;;4949133;28;20038;-77
2020/12/29 01:53:17;;;;;;;3.28;2.33;;;7.40;70.90;;;;;;4935851;28;20043;-76
2020/12/29 01:55:42;;;;;;;2.05;1.67;;;7.40;70.90;;;;;;4944188;28;20496;-76
2020/12/29 01:58:09;;;;;;;2.53;1.75;;;7.40;71.00;;;;;;4939729;28;20492;-77
2020/12/29 02:00:34;;;;;;;2.10;1.80;;;7.30;71.00;;;;;;4933072;28;20527;-78
2020/12/29 02:03:00;;;;;;;1.92;1.73;;;7.30;71.00;;;;;;4944645;28;20039;-75
2020/12/29 02:05:26;;;;;;;2.25;2.00;;;7.40;71.20;;;;;;4938705;28;20077;-76
2020/12/29 02:07:53;;;;;;;2.50;2.15;;;7.30;71.10;;;;;;4944567;28;20400;-76
2020/12/29 02:10:18;;;;;;;2.60;2.30;;;7.30;71.10;;;;;;4942591;28;20042;-76
2020/12/29 02:12:44;;;;;;;3.08;2.45;;;7.30;71.10;;;;;;4944252;28;20035;-76
2020/12/29 02:15:09;;;;;;;2.92;2.10;;;7.30;71.10;;;;;;4944183;28;20043;-77
2020/12/29 02:17:35;;;;;;;2.75;2.13;;;7.40;71.30;;;;;;4947627;28;20062;-75
2020/12/29 02:20:02;;;;;;;2.17;1.85;;;7.30;71.30;;;;;;4946618;28;20066;-76
2020/12/29 02:22:28;;;;;;;4.00;2.30;;;7.30;71.40;;;;;;4938511;28;20070;-75
2020/12/29 02:24:56;;;;;;;3.28;2.22;;;7.40;71.50;;;;;;4943752;28;20118;-76
2020/12/29 02:27:24;;;;;;;3.35;2.88;;;7.40;71.50;;;;;;4936723;28;20331;-76
2020/12/29 02:29:51;;;;;;;2.88;2.17;;;7.30;71.40;;;;;;4942484;28;20035;-76
2020/12/29 02:32:19;;;;;;;2.55;2.20;;;7.40;71.40;;;;;;4943104;28;20125;-76
2020/12/29 02:34:44;;;;;;;2.83;2.53;;;7.40;71.40;;;;;;4943628;28;20031;-76
2020/12/29 02:37:10;;;;;;;2.40;2.20;;;7.40;71.40;;;;;;4944588;28;20047;-76
2020/12/29 02:39:40;;;;;;;2.53;1.80;;;7.40;71.40;;;;;;4939748;28;20102;-76
2020/12/29 02:42:06;;;;;;;2.60;1.98;;;7.30;71.40;;;;;;4946595;28;20505;-77
2020/12/29 02:44:32;;;;;;;2.33;2.13;;;7.30;71.40;;;;;;4938072;28;20035;-75
2020/12/29 02:46:58;;;;;;;2.15;1.85;;;7.40;71.40;;;;;;4944261;28;20043;-77
2020/12/29 02:49:23;;;;;;;3.92;2.25;;;7.40;71.50;;;;;;4941087;28;20081;-76
2020/12/29 02:51:49;;;;;;;2.53;2.05;;;7.40;71.40;;;;;;4944250;28;20035;-76
2020/12/29 02:54:15;;;;;;;2.20;2.00;;;7.50;71.40;;;;;;4946582;28;20035;-76
2020/12/29 02:56:41;;;;;;;2.40;1.75;;;7.40;71.30;;;;;;4939833;28;20046;-77
2020/12/29 02:59:07;;;;;;;2.97;2.53;;;7.40;71.20;;;;;;4944092;28;20043;-75
2020/12/29 03:01:33;;;;;;;2.35;1.98;;;7.30;71.10;;;;;;4938235;28;20031;-76
2020/12/29 03:03:58;;;;;;;2.63;2.17;;;7.40;71.20;;;;;;4943910;28;20066;-77
2020/12/29 03:06:24;;;;;;;2.78;2.15;;;7.40;71.20;;;;;;4949564;28;20451;-76
2020/12/29 03:08:50;;;;;;;3.38;1.92;;;7.40;71.20;;;;;;4942729;28;20178;-76
2020/12/29 03:11:23;;;;;;;2.35;2.08;;;7.30;71.20;;;;;;4949401;28;20034;-77
2020/12/29 03:13:49;;;;;;;3.13;2.30;;;7.40;71.30;;;;;;4955214;28;20569;-76
2020/12/29 03:16:14;;;;;;;2.50;2.00;;;7.30;71.30;;;;;;4950843;28;20121;-76
2020/12/29 03:18:40;;;;;;;2.42;1.80;;;7.30;71.40;;;;;;4947573;28;20099;-76
2020/12/29 03:21:05;;;;;;;2.47;1.80;;;7.40;71.50;;;;;;4948773;28;20181;-76
2020/12/29 03:23:31;;;;;;;2.22;2.00;;;7.40;71.50;;;;;;4946758;28;20601;-75
2020/12/29 03:25:56;;;;;;;2.58;1.98;;;7.40;71.50;;;;;;4953655;28;20117;-76
2020/12/29 03:28:22;;;;;;;2.85;2.40;;;7.40;71.60;;;;;;4955797;28;20380;-76
2020/12/29 03:30:47;;;;;;;1.90;1.70;;;7.40;71.60;;;;;;4947969;28;20054;-76
2020/12/29 03:33:13;;;;;;;2.45;2.10;;;7.40;72.10;;;;;;4948691;28;20124;-76
2020/12/29 03:35:38;;;;;;;3.20;2.40;;;7.40;71.60;;;;;;4940648;28;20039;-76
2020/12/29 03:38:04;;;;;;;2.20;1.98;;;7.40;71.70;;;;;;4950551;28;20051;-76
2020/12/29 03:40:29;;;;;;;1.88;1.67;;;7.40;71.70;;;;;;4950237;28;20492;-76
2020/12/29 03:42:55;;;;;;;2.25;2.05;;;7.40;71.70;;;;;;4952481;28;20142;-76
2020/12/29 03:45:20;;;;;;;2.22;1.98;;;7.50;71.70;;;;;;4949311;28;20043;-76
2020/12/29 03:47:46;;;;;;;2.13;1.88;;;7.50;71.80;;;;;;4945526;28;20101;-76
2020/12/29 03:50:11;;;;;;;1.95;1.70;;;7.50;71.70;;;;;;4946467;28;20479;-76
2020/12/29 03:52:36;;;;;;;2.25;1.95;;;7.50;71.80;;;;;;4948734;28;20031;-76
2020/12/29 03:55:02;;;;;;;2.38;2.08;;;7.50;71.70;;;;;;4955381;28;20031;-76
2020/12/29 03:57:28;;;;;;;2.70;2.00;;;7.50;71.70;;;;;;4951217;28;20035;-76
2020/12/29 03:59:53;;;;;;;2.22;2.00;;;7.60;71.70;;;;;;4953220;28;20122;-76
2020/12/29 04:02:18;;;;;;;3.08;2.38;;;7.50;71.60;;;;;;4948035;28;20039;-76
2020/12/29 04:04:44;;;;;;;2.08;1.88;;;7.50;71.50;;;;;;4944532;28;20395;-76
2020/12/29 04:07:09;;;;;;;2.30;1.88;;;7.60;71.50;;;;;;4953294;28;20049;-76
2020/12/29 04:09:35;;;;;;;2.65;2.17;;;7.60;71.50;;;;;;4948222;28;20553;-77
2020/12/29 04:12:00;;;;;;;2.15;1.95;;;7.60;71.40;;;;;;4954582;28;20031;-76
2020/12/29 04:14:26;;;;;;;1.70;1.60;;;7.50;71.40;;;;;;4956658;28;20026;-75
2020/12/29 04:16:55;;;;;;;2.58;2.05;;;7.50;71.30;;;;;;4945218;28;20042;-77
2020/12/29 04:19:20;;;;;;;2.33;1.75;;;7.50;71.30;;;;;;4945966;28;20146;-76
2020/12/29 04:21:45;;;;;;;2.95;2.00;;;7.50;71.40;;;;;;4962271;23;20140;-79
2020/12/29 04:24:11;;;;;;;2.88;2.05;;;7.50;71.30;;;;;;5003571;28;20109;-79
2020/12/29 04:26:36;;;;;;;1.90;1.70;;;7.50;71.20;;;;;;4995419;28;20037;-79
2020/12/29 04:29:02;;;;;;;2.55;1.83;;;7.50;71.20;;;;;;5005547;28;20057;-79
2020/12/29 04:31:27;;;;;;;2.30;2.10;;;7.40;71.10;;;;;;5004306;28;20029;-78
2020/12/29 04:33:53;;;;;;;2.33;2.10;;;7.40;71.10;;;;;;4996176;28;20030;-80
2020/12/29 04:36:18;;;;;;;2.13;1.77;;;7.40;71.20;;;;;;5005445;28;20117;-80
2020/12/29 04:38:44;;;;;;;2.30;2.10;;;7.40;71.20;;;;;;4994316;28;20045;-79
2020/12/29 04:41:09;;;;;;;2.00;1.60;;;7.30;71.20;;;;;;5002348;28;20540;-79
2020/12/29 04:43:35;;;;;;;1.85;1.65;;;7.40;71.30;;;;;;5003314;28;20030;-79
2020/12/29 04:46:03;;;;;;;1.98;1.58;;;7.30;71.30;;;;;;4998796;28;20030;-79
2020/12/29 04:48:29;;;;;;;1.95;1.73;;;7.40;71.40;;;;;;5004115;28;20064;-79
2020/12/29 04:51:07;;;;;;;1.85;1.63;;;7.30;71.40;;;;;;4995529;28;20121;-79
2020/12/29 04:53:34;;;;;;;3.97;1.90;;;7.30;71.50;;;;;;5001343;28;20036;-77
2020/12/29 04:56:07;;;;;;;1.88;1.60;;;7.40;71.50;;;;;;4995063;28;20049;-79
2020/12/29 04:58:35;;;;;;;1.88;1.67;;;7.40;71.50;;;;;;5002644;28;20033;-78
2020/12/29 05:01:07;;;;;;;2.08;1.77;;;7.40;71.60;;;;;;4995908;28;20507;-79
2020/12/29 05:03:46;;;;;;;2.63;2.30;;;7.40;71.60;;;;;;5000375;28;20418;-78
2020/12/29 05:06:13;;;;;;;2.65;2.30;;;7.40;71.70;;;;;;5002330;28;20029;-78
2020/12/29 05:08:48;;;;;;;2.20;2.00;;;7.40;71.70;;;;;;5004892;28;20037;-77
2020/12/29 05:11:15;;;;;;;2.40;2.20;;;7.40;71.90;;;;;;5006992;28;20041;-78
2020/12/29 05:13:43;;;;;;;3.08;2.42;;;7.50;71.90;;;;;;5006484;28;20029;-79
2020/12/29 05:16:08;;;;;;;2.65;2.42;;;7.40;71.80;;;;;;5007612;28;20091;-79
2020/12/29 05:18:34;;;;;;;2.92;2.40;;;7.50;71.90;;;;;;5004840;28;20026;-79
2020/12/29 05:21:00;;;;;;;2.42;2.22;;;7.50;71.90;;;;;;4998005;28;20180;-79
2020/12/29 05:23:25;;;;;;;2.88;2.58;;;7.50;71.90;;;;;;5006517;28;20061;-79
2020/12/29 05:25:52;;;;;;;3.28;2.45;;;7.50;71.90;;;;;;5004018;28;20553;-78
2020/12/29 05:28:18;;;;;;;2.72;2.42;;;7.50;72.00;;;;;;5010397;28;20041;-80
2020/12/29 05:30:51;;;;;;;2.70;2.38;;;7.60;72.00;;;;;;5008498;28;20021;-79
2020/12/29 05:33:17;;;;;;;3.85;2.95;;;7.50;72.00;;;;;;5005961;28;20041;-79
2020/12/29 05:35:42;;;;;;;3.45;2.92;;;7.60;72.00;;;;;;5007902;28;20033;-78
2020/12/29 05:38:08;;;;;;;3.33;2.90;;;7.70;72.00;;;;;;5000449;28;20076;-78
2020/12/29 05:40:34;;;;;;;3.60;2.95;;;7.60;71.90;;;;;;5007056;28;20037;-79
2020/12/29 05:43:01;;;;;;;4.32;3.45;;;7.70;71.80;;;;;;4999729;28;20053;-78
2020/12/29 05:45:28;;;;;;;4.43;3.20;;;7.60;71.70;;;;;;5007250;28;20037;-78
2020/12/29 05:47:58;;;;;;;3.53;3.00;;;7.70;71.70;;;;;;4997010;28;20038;-79
2020/12/29 05:50:25;;;;;;;3.88;2.80;;;7.70;71.70;;;;;;5003030;28;20509;-80
2020/12/29 05:53:03;;;;;;;3.08;2.78;;;7.70;71.70;;;;;;4995127;28;20038;-79
2020/12/29 05:55:31;;;;;;;3.28;2.95;;;7.60;71.70;;;;;;5003417;28;20762;-78
2020/12/29 05:58:05;;;;;;;3.60;2.67;;;7.70;71.70;;;;;;4993422;28;20137;-80
2020/12/29 06:00:31;;;;;;;3.10;2.58;;;7.70;71.70;;;;;;5006032;28;20025;-75
2020/12/29 06:02:58;;;;;;;3.35;2.83;;;7.70;71.60;;;;;;5007123;28;20116;-77
2020/12/29 06:05:25;;;;;;;3.80;3.40;;;7.60;71.60;;;;;;5008700;28;20522;-76
2020/12/29 06:07:54;;;;;;;3.22;2.90;;;7.60;71.60;;;;;;5012283;28;20411;-77
2020/12/29 06:10:20;;;;;;;3.85;3.25;;;7.60;71.50;;;;;;5013045;28;20116;-76
2020/12/29 06:12:52;;;;;;;3.47;3.08;;;7.70;71.60;;;;;;5021176;28;20042;-77
2020/12/29 06:15:31;;;;;;;3.97;3.20;;;7.60;71.60;;;;;;5010170;28;20454;-76
2020/12/29 06:18:01;;;;;;;4.70;3.58;;;7.70;71.70;;;;;;5023845;28;20113;-76
2020/12/29 06:20:50;;;;;;;3.90;3.17;;;7.60;71.60;;;;;;5027975;28;20120;-75
2020/12/29 06:23:18;;;;;;;3.22;2.78;;;7.60;71.70;;;;;;5020932;28;20042;-78
2020/12/29 06:25:45;;;;;;;3.97;3.35;;;7.70;71.60;;;;;;5021488;28;20026;-76
2020/12/29 06:28:14;;;;;;;3.35;3.05;;;7.60;71.40;;;;;;5012301;28;20038;-76
2020/12/29 06:30:41;;;;;;;3.50;3.15;;;7.60;71.30;;;;;;5032077;28;20045;-76
2020/12/29 06:33:07;;;;;;;4.32;3.42;;;7.60;71.20;;;;;;5027144;28;20057;-76
2020/12/29 06:35:33;;;;;;;4.78;3.63;;;7.60;71.00;;;;;;5022909;28;20410;-74
2020/12/29 06:38:19;;;;;;;3.88;3.47;;;7.50;70.90;;;;;;5016588;28;20108;-77
2020/12/29 06:40:46;;;;;;;4.50;3.63;;;7.50;70.80;;;;;;5016945;28;20495;-76
2020/12/29 06:43:12;;;;;;;4.90;3.70;;;7.50;70.80;;;;;;5017715;28;20484;-75
2020/12/29 06:45:38;;;;;;;3.75;3.05;;;7.40;70.80;;;;;;5021207;28;20083;-76
2020/12/29 06:48:23;;;;;;;4.45;3.63;;;7.30;70.80;;;;;;5025075;28;20069;-76
2020/12/29 06:50:49;;;;;;;3.63;3.25;;;7.30;71.00;;;;;;5020909;28;20026;-79
2020/12/29 06:53:18;;;;;;;3.80;3.42;;;7.30;71.00;;;;;;5026334;28;20087;-79
2020/12/29 06:55:45;;;;;;;4.05;3.60;;;7.20;71.10;;;;;;5020463;28;20030;-77
2020/12/29 06:58:28;;;;;;;3.45;3.15;;;7.20;71.20;;;;;;5023611;28;20034;-77
2020/12/29 07:01:26;;;;;;;5.05;4.10;;;7.20;71.40;;;;;;5015461;28;20116;-78
2020/12/29 07:04:06;;;;;;;3.80;3.40;;;7.20;71.60;;;;;;5019317;28;20026;-77
2020/12/29 07:06:35;;;;;;;4.60;3.85;;;7.20;71.60;;;;;;5014009;28;20124;-77
2020/12/29 07:09:07;;;;;;;4.30;3.90;;;7.20;71.60;;;;;;5028043;28;20029;-78
2020/12/29 07:11:33;;;;;;;4.30;3.80;;;7.20;71.70;;;;;;5020039;28;20099;-79
2020/12/29 07:14:02;;;;;;;4.45;3.60;;;7.20;71.60;;;;;;5021668;28;20029;-78
2020/12/29 07:16:28;;;;;;;4.22;3.78;;;7.20;71.60;;;;;;5025449;28;20029;-78
2020/12/29 07:19:10;;;;;;;4.75;3.97;;;7.20;71.50;;;;;;5017358;28;20022;-78
2020/12/29 07:21:37;;;;;;;4.15;3.65;;;7.20;71.50;;;;;;5022866;28;20564;-79
2020/12/29 07:24:06;;;;;;;4.55;4.05;;;7.20;71.40;;;;;;5019691;28;20033;-76
2020/12/29 07:26:40;;;;;;;3.88;3.45;;;7.20;71.40;;;;;;5019550;28;20056;-75
2020/12/29 07:29:07;;;;;;;4.25;2.95;;;7.10;71.40;;;;;;5034116;28;20116;-84
2020/12/29 07:31:43;;;;;;;4.82;3.85;;;7.30;71.70;;;;;;5027377;28;20030;-77
2020/12/29 07:34:13;;;;;;;4.57;4.18;;;7.10;71.90;;;;;;5021635;28;20030;-77
2020/12/29 07:36:44;;;;;;;5.68;4.78;;;7.10;71.90;;;;;;5018917;28;20087;-77
2020/12/29 07:39:12;;;;;;;4.97;4.47;;;7.20;72.00;;;;;;5018779;28;20054;-77
2020/12/29 07:41:39;;;;;;;4.35;3.33;;;7.20;72.00;;;;;;5018184;28;20029;-76
2020/12/29 07:44:05;;;;;;;5.10;4.28;;;7.20;72.00;;;;;;5017058;28;20088;-76
2020/12/29 07:46:31;;;;;;;6.13;4.43;;;7.40;72.10;;;;;;5015382;28;20033;-76
2020/12/29 07:48:57;;;;;;;3.92;3.53;;;7.30;72.10;;;;;;5018989;28;20033;-76
2020/12/29 07:51:23;;;;;;;4.10;3.70;;;7.30;72.10;;;;;;5021968;28;20053;-76
2020/12/29 07:53:48;;;;;;;4.28;3.88;;;7.30;72.00;;;;;;5015911;28;20068;-78
2020/12/29 07:56:14;;;;;;;4.05;3.65;;;7.30;72.00;;;;;;5018556;28;20025;-76
2020/12/29 07:58:40;;;;;;;4.13;3.63;;;7.30;72.00;;;;;;5017058;28;20079;-75
2020/12/29 08:01:05;;;;;;;4.60;3.88;;;7.30;71.90;;;;;;5017865;28;20026;-76
2020/12/29 08:03:31;;;;;;;4.95;4.13;;;7.30;71.90;;;;;;5019129;28;20025;-76
2020/12/29 08:05:56;;;;;;;4.38;3.97;;;7.40;71.90;;;;;;5018533;28;20083;-76
2020/12/29 08:08:22;;;;;;;4.53;4.13;;;7.30;71.80;;;;;;5019326;28;20036;-78
2020/12/29 08:10:47;;;;;;;4.88;4.13;;;7.30;71.90;;;;;;5016517;28;20037;-76
2020/12/29 08:13:17;;;;;;;4.95;4.28;;;7.40;71.90;;;;;;5014956;28;20076;-76
2020/12/29 08:15:43;;;;;;;4.40;3.72;;;7.40;71.90;;;;;;5013089;28;20510;-77
2020/12/29 08:18:17;;;;;;;5.40;4.68;;;7.40;71.90;;;;;;5014993;28;20037;-76
2020/12/29 08:20:50;;;;;;;4.18;3.78;;;7.40;71.80;;;;;;5016758;28;20034;-77
2020/12/29 08:23:20;;;;;;;3.75;3.40;;;7.40;71.80;;;;;;5017278;28;20406;-76
2020/12/29 08:25:49;;;;;;;4.78;4.10;;;7.40;71.80;;;;;;5015975;28;20093;-76
2020/12/29 08:28:16;;;;;;;4.20;3.80;;;7.40;71.80;;;;;;5018198;28;20084;-76
2020/12/29 08:30:42;;;;;;;4.03;3.47;;;7.40;71.80;;;;;;5013227;28;20472;-77
2020/12/29 08:33:08;;;;;;;5.05;4.22;;;7.40;71.80;;;;;;5012986;28;20034;-77
2020/12/29 08:35:46;;;;;;;4.57;4.10;;;7.40;71.80;;;;;;5016159;28;20038;-76
2020/12/29 08:38:19;;;;;;;4.30;3.90;;;7.50;71.90;;;;;;5013329;28;20042;-77
2020/12/29 08:40:52;;;;;;;6.60;3.88;;;7.40;71.80;;;;;;5011058;28;20029;-76
2020/12/29 08:43:18;;;;;;;3.97;3.55;;;7.40;71.80;;;;;;5018642;28;20075;-76
2020/12/29 08:45:43;;;;;;;5.55;4.00;;;7.50;71.80;;;;;;5011853;28;20045;-76
2020/12/29 08:48:09;;;;;;;4.45;4.05;;;7.50;71.80;;;;;;5014668;28;20503;-77
2020/12/29 08:50:37;;;;;;;4.25;3.85;;;7.50;71.80;;;;;;5018028;28;20403;-77
2020/12/29 08:53:11;;;;;;;4.97;4.00;;;7.50;71.90;;;;;;5013670;28;20033;-76
2020/12/29 08:55:39;;;;;;;4.70;3.92;;;7.40;71.90;;;;;;5016009;28;20029;-77
2020/12/29 08:58:04;;;;;;;4.40;3.72;;;7.50;71.90;;;;;;5014887;28;20041;-76
2020/12/29 09:00:31;;;;;;;4.90;4.43;;;7.50;72.00;;;;;;5016655;28;20033;-76
2020/12/29 09:02:57;;;;;;;4.63;3.72;;;7.50;72.00;;;;;;5012965;28;20037;-76
2020/12/29 09:05:27;;;;;;;5.25;4.28;;;7.60;72.00;;;;;;5017370;28;20525;-74
2020/12/29 09:07:54;;;;;;;5.40;4.53;;;7.50;72.00;;;;;;5013249;28;20052;-74
2020/12/29 09:10:20;;;;;;;4.10;3.65;;;7.60;72.00;;;;;;5016736;28;20502;-74
2020/12/29 09:12:46;;;;;;;5.43;4.22;;;7.60;72.00;;;;;;5016998;28;20132;-74
2020/12/29 09:15:13;;;;;;;4.47;3.88;;;7.60;72.00;;;;;;5018963;28;20125;-75
2020/12/29 09:17:43;;;;;;;4.13;3.70;;;7.60;72.10;;;;;;5016641;28;20034;-75
2020/12/29 09:20:23;;;;;;;5.25;4.15;;;7.60;72.00;;;;;;5017557;28;20481;-74
2020/12/29 09:22:57;;;;;;;4.88;3.88;;;7.70;72.10;;;;;;5010432;28;20044;-74
2020/12/29 09:25:32;;;;;;;5.22;4.28;;;7.70;72.10;;;;;;5014300;28;20033;-74
2020/12/29 09:28:30;;;;;;;4.78;4.07;;;7.70;72.10;;;;;;5018689;28;20058;-74
2020/12/29 09:31:07;;;;;;;5.38;4.55;;;7.70;72.10;;;;;;4999300;28;20578;-77
2020/12/29 09:33:35;;;;;;;4.13;3.58;;;7.70;72.00;;;;;;5012341;28;20045;-73
2020/12/29 09:36:02;;;;;;;4.03;3.63;;;7.70;71.90;;;;;;5013023;28;20034;-75
2020/12/29 09:38:29;;;;;;;4.57;3.97;;;7.70;71.90;;;;;;5013179;28;20068;-74
2020/12/29 09:40:55;;;;;;;4.47;3.95;;;7.70;72.00;;;;;;5009789;28;20033;-75
2020/12/29 09:43:23;;;;;;;4.72;4.13;;;8.00;72.20;;;;;;5009582;28;20037;-75
2020/12/29 09:45:50;;;;;;;4.35;3.95;;;7.80;72.00;;;;;;5014929;28;20407;-75
2020/12/29 09:48:17;;;;;;;6.38;3.97;;;7.80;72.00;;;;;;5014850;28;20040;-75
2020/12/29 09:50:43;;;;;;;4.53;3.83;;;7.80;72.00;;;;;;5013008;28;20061;-77
2020/12/29 09:53:08;;;;;;;4.43;3.80;;;7.90;72.10;;;;;;5015284;28;20047;-75
2020/12/29 09:55:34;;;;;;;4.00;3.58;;;7.80;72.00;;;;;;5015625;28;20490;-75
2020/12/29 09:58:00;;;;;;;3.85;3.45;;;7.80;72.00;;;;;;5002315;28;20022;-75
2020/12/29 10:00:25;;;;;;;3.75;3.25;;;7.80;72.00;;;;;;5006930;28;20034;-78
2020/12/29 10:02:51;;;;;;;4.57;3.67;;;7.90;72.00;;;;;;5009607;28;20033;-78
2020/12/29 10:05:17;;;;;;;4.32;3.80;;;7.90;72.00;;;;;;4999961;28;20037;-76
2020/12/29 10:07:46;;;;;;;4.15;3.55;;;7.90;72.10;;;;;;5005003;28;20046;-75
2020/12/29 10:10:12;;;;;;;4.07;3.53;;;8.00;72.10;;;;;;4999369;28;20037;-75
2020/12/29 10:12:38;;;;;;;3.83;3.38;;;7.90;72.10;;;;;;5000938;28;20032;-78
2020/12/29 10:15:05;;;;;;;5.47;4.20;;;8.00;72.20;;;;;;5001523;28;20042;-76
2020/12/29 10:17:31;;;;;;;3.90;3.33;;;8.00;72.20;;;;;;5001053;28;20489;-73
2020/12/29 10:19:56;;;;;;;4.65;3.70;;;8.00;72.20;;;;;;4998380;28;20117;-75
2020/12/29 10:22:22;;;;;;;4.05;3.42;;;8.00;72.20;;;;;;5028291;22;20125;-73
2020/12/29 10:24:48;;;;;;;4.50;3.60;;;8.00;72.30;;;;;;4989469;28;20033;-73
2020/12/29 10:27:13;;;;;;;4.65;3.92;;;8.10;72.30;;;;;;4988637;28;20410;-73
2020/12/29 10:29:39;;;;;;;4.03;3.55;;;8.20;72.40;;;;;;4984411;28;20033;-73
2020/12/29 10:32:04;;;;;;;4.30;3.72;;;8.10;72.30;;;;;;4976112;28;20038;-72
2020/12/29 10:34:30;;;;;;;4.65;4.05;;;8.20;72.40;;;;;;4982976;28;20037;-73
2020/12/29 10:36:55;;;;;;;4.63;4.10;;;8.20;72.40;;;;;;4986927;28;20511;-73
2020/12/29 10:39:21;;;;;;;5.13;4.13;;;8.30;72.40;;;;;;4973150;28;20038;-71
2020/12/29 10:41:46;;;;;;;5.00;4.50;;;8.30;72.30;;;;;;4972348;28;20495;-72
2020/12/29 10:44:12;;;;;;;4.22;3.67;;;8.30;72.20;;;;;;4968600;28;20034;-73
2020/12/29 10:46:37;;;;;;;5.18;4.28;;;8.30;72.10;;;;;;4974652;28;20061;-73
2020/12/29 10:49:03;;;;;;;4.53;3.97;;;8.40;72.20;;;;;;4962643;28;20046;-72
2020/12/29 10:51:29;;;;;;;6.00;4.55;;;8.40;72.10;;;;;;4977337;28;20036;-72
2020/12/29 10:53:55;;;;;;;5.05;4.55;;;8.40;72.00;;;;;;4975443;28;20026;-72
2020/12/29 10:56:21;;;;;;;5.70;4.82;;;8.40;71.90;;;;;;4970328;28;20126;-72
2020/12/29 10:58:47;;;;;;;4.88;4.20;;;8.50;72.00;;;;;;4975173;28;20061;-72
2020/12/29 11:01:20;;;;;;;5.72;4.60;;;8.40;71.90;;;;;;4973754;28;20038;-72
2020/12/29 11:03:46;;;;;;;5.65;4.70;;;8.50;72.00;;;;;;4974052;28;21558;-72
2020/12/29 11:06:13;;;;;;;5.90;4.75;;;8.50;71.90;;;;;;4969386;28;20042;-72
2020/12/29 11:08:39;;;;;;;5.90;4.55;;;8.50;71.90;;;;;;4973771;28;20042;-72
2020/12/29 11:11:04;;;;;;;5.03;4.28;;;8.50;72.00;;;;;;4970344;28;20415;-73
2020/12/29 11:13:30;;;;;;;5.43;4.68;;;8.60;72.10;;;;;;4978212;28;20539;-72
2020/12/29 11:15:55;;;;;;;5.93;5.18;;;8.70;72.20;;;;;;4974879;28;20525;-72
2020/12/29 11:18:21;;;;;;;4.93;4.28;;;8.60;72.10;;;;;;4970845;28;20033;-71
2020/12/29 11:20:50;;;;;;;4.63;3.80;;;8.60;72.00;;;;;;4975747;28;20064;-72
2020/12/29 11:23:16;;;;;;;6.40;4.45;;;8.70;71.90;;;;;;4968715;28;20049;-72
2020/12/29 11:25:41;;;;;;;5.18;4.07;;;8.70;71.90;;;;;;4974223;28;20037;-72
2020/12/29 11:28:07;;;;;;;4.68;3.92;;;8.70;71.90;;;;;;4973312;28;20563;-72
2020/12/29 11:30:32;;;;;;;5.03;4.38;;;8.70;71.90;;;;;;4977317;28;20093;-71
2020/12/29 11:32:57;;;;;;;4.68;4.25;;;8.70;71.90;;;;;;4972261;28;20416;-72
2020/12/29 11:35:23;;;;;;;5.00;4.50;;;8.70;72.00;;;;;;4970171;28;20033;-71
2020/12/29 11:37:48;;;;;;;5.32;4.82;;;8.70;71.90;;;;;;4977153;28;20030;-72
2020/12/29 11:40:14;;;;;;;4.30;3.88;;;8.80;71.90;;;;;;4965718;28;20046;-71
2020/12/29 11:42:40;;;;;;;5.40;4.47;;;8.80;71.90;;;;;;4971489;28;20446;-74
2020/12/29 11:45:05;;;;;;;5.30;4.38;;;8.80;71.90;;;;;;4976786;28;20140;-72
2020/12/29 11:47:31;;;;;;;5.10;4.60;;;8.80;71.90;;;;;;4964197;28;20050;-71
2020/12/29 11:49:56;;;;;;;5.68;4.15;;;8.80;71.90;;;;;;4977419;28;20030;-71
2020/12/29 11:52:25;;;;;;;5.80;4.50;;;8.80;71.80;;;;;;4966470;28;20045;-71
2020/12/29 11:54:51;;;;;;;4.72;3.92;;;8.80;71.70;;;;;;4974624;28;20034;-72
2020/12/29 11:57:17;;;;;;;5.22;4.53;;;8.90;71.80;;;;;;4967127;28;20038;-72
2020/12/29 11:59:43;;;;;;;4.95;4.40;;;8.80;71.60;;;;;;4974587;28;20044;-71
2020/12/29 12:02:08;;;;;;;4.63;4.13;;;8.90;71.70;;;;;;4973263;28;20043;-72
2020/12/29 12:04:34;;;;;;;6.22;4.78;;;8.90;71.60;;;;;;4970215;28;20140;-72
2020/12/29 12:06:59;;;;;;;4.25;3.80;;;8.90;71.50;;;;;;4988656;28;20112;-72
2020/12/29 12:09:25;;;;;;;5.45;4.05;;;8.90;71.50;;;;;;4975826;28;20046;-71
2020/12/29 12:11:50;;;;;;;5.78;4.70;;;8.90;71.50;;;;;;4975892;28;20176;-72
2020/12/29 12:14:16;;;;;;;5.50;4.70;;;8.80;71.50;;;;;;4970829;28;20031;-73
2020/12/29 12:16:41;;;;;;;5.30;4.22;;;8.80;71.40;;;;;;4983462;28;20510;-72
2020/12/29 12:19:07;;;;;;;5.40;4.45;;;8.90;71.50;;;;;;4979441;28;20126;-71
2020/12/29 12:21:34;;;;;;;5.82;4.93;;;8.80;71.40;;;;;;4981441;28;20039;-72
2020/12/29 12:24:00;;;;;;;5.53;4.38;;;8.90;71.50;;;;;;4980334;28;20034;-72
2020/12/29 12:26:26;;;;;;;5.75;4.57;;;8.90;71.50;;;;;;4981941;28;20121;-71
2020/12/29 12:28:52;;;;;;;4.75;4.25;;;8.80;71.90;;;;;;4982223;28;20057;-71
2020/12/29 12:31:18;;;;;;;4.78;4.30;;;8.80;71.40;;;;;;4981457;28;20399;-71
2020/12/29 12:33:44;;;;;;;5.32;4.63;;;8.80;71.40;;;;;;4977182;28;20026;-71
2020/12/29 12:36:11;;;;;;;6.30;4.93;;;8.80;71.40;;;;;;4977805;28;20045;-72
2020/12/29 12:38:36;;;;;;;5.68;4.93;;;8.80;71.40;;;;;;4988636;28;20030;-72
2020/12/29 12:41:06;;;;;;;5.10;4.60;;;8.80;71.40;;;;;;4987062;28;20037;-73
2020/12/29 12:43:31;;;;;;;6.45;5.13;;;8.80;71.40;;;;;;4981432;28;20399;-72
2020/12/29 12:45:57;;;;;;;5.82;4.85;;;8.70;71.20;;;;;;4991279;28;20038;-73
2020/12/29 12:48:23;;;;;;;5.85;4.82;;;8.80;71.30;;;;;;4991212;28;20076;-74
2020/12/29 12:50:49;;;;;;;6.60;4.82;;;8.70;71.20;;;;;;4989354;28;20073;-73
2020/12/29 12:53:14;;;;;;;5.78;4.85;;;8.70;71.20;;;;;;4988585;28;20069;-73
2020/12/29 12:55:40;;;;;;;6.60;5.35;;;8.70;71.20;;;;;;4983233;28;20054;-74
2020/12/29 12:58:05;;;;;;;7.00;5.70;;;8.70;71.20;;;;;;4987488;28;20118;-73